Scales Mound, Illinois
Current Conditions -  °F | °C
As of 9:15 PM on Saturday 22 Nov 2014 (Local Time) from KPVB Reporting Station
Overcast Overcast  
Wind Chill: 45°   Ceiling: 1000
Heat Index: 49°   Visibility: 5mi
Dew Point: 49°   Wind: 13mph
Humidity: 97%   Direction: 180°S
Pressure: 29.76"   Gusts: NA
Location:  42.48°N, 90.25°W
Report Text: KPVB 230315Z AUTO 18011KT 5SM BKN010 OVC015 10/09 A2976 RMK AO1 T00970092
Loading
Personal Weather Stations






























Interactive Weather Map New forecast layout! Learn more

10-Day Weather Forecast

Advertisements
Track Severe Weather on mobile